Time;durP1;ratioP1;P1;durP2;ratioP2;P2;SDS_P1;SDS_P2;PMS_P1;PMS_P2;Temp;Humidity;BMP_temperature;BMP_pressure;BME280_temperature;BME280_humidity;BME280_pressure;Samples;Min_cycle;Max_cycle;Signal;HPM_P1;HPM_P2
2021/12/09 00:02:49;;;;;;;6.35;2.70;;;4.80;99.90;;;;;;10381071;28;84504;-48
2021/12/09 00:07:52;;;;;;;5.22;2.05;;;4.70;99.90;;;;;;10382326;28;84879;-49
2021/12/09 00:12:53;;;;;;;4.50;2.45;;;4.70;99.90;;;;;;10379989;28;84606;-48
2021/12/09 00:17:54;;;;;;;7.22;2.38;;;4.70;99.90;;;;;;10380851;28;84168;-46
2021/12/09 00:22:54;;;;;;;4.40;2.30;;;4.70;99.90;;;;;;10382130;28;84773;-48
2021/12/09 00:27:55;;;;;;;4.05;2.17;;;4.80;99.90;;;;;;10382061;28;85549;-47
2021/12/09 00:32:57;;;;;;;4.93;2.60;;;4.80;99.90;;;;;;10382174;28;85219;-50
2021/12/09 00:38:06;;;;;;;4.10;2.25;;;4.90;99.90;;;;;;10381569;28;84808;-47
2021/12/09 00:43:07;;;;;;;4.07;2.05;;;4.90;99.90;;;;;;10383331;28;84643;-49
2021/12/09 00:48:08;;;;;;;3.78;1.73;;;4.90;99.90;;;;;;10375473;28;84166;-48
2021/12/09 00:53:08;;;;;;;5.07;2.08;;;5.00;99.90;;;;;;10382006;28;84581;-49
2021/12/09 00:58:09;;;;;;;5.70;2.50;;;5.10;99.90;;;;;;10379850;28;84174;-49
2021/12/09 01:03:10;;;;;;;5.80;2.13;;;5.10;99.90;;;;;;10381941;28;84030;-51
2021/12/09 01:08:11;;;;;;;4.93;1.95;;;5.20;99.90;;;;;;10387464;22;84614;-42
2021/12/09 01:13:12;;;;;;;5.22;1.73;;;5.20;99.90;;;;;;10358996;28;84111;-44
2021/12/09 01:18:13;;;;;;;6.22;1.95;;;5.30;99.90;;;;;;10365669;28;84896;-45
2021/12/09 01:23:14;;;;;;;11.15;2.45;;;5.30;99.90;;;;;;10365973;28;84712;-46
2021/12/09 01:28:23;;;;;;;9.73;2.03;;;5.30;99.90;;;;;;10365173;28;84680;-45
2021/12/09 01:33:24;;;;;;;12.10;2.55;;;5.10;99.90;;;;;;10365741;28;84200;-41
2021/12/09 01:38:28;;;;;;;4.47;2.00;;;5.20;99.90;;;;;;10364858;28;84853;-46
2021/12/09 01:43:29;;;;;;;5.18;1.83;;;5.20;99.90;;;;;;10365247;28;85107;-46
2021/12/09 01:48:30;;;;;;;4.38;2.03;;;5.10;99.90;;;;;;10364571;28;84841;-49
2021/12/09 01:53:30;;;;;;;3.75;1.95;;;5.00;99.90;;;;;;10363206;28;87247;-47
2021/12/09 01:58:31;;;;;;;3.58;2.13;;;5.10;99.90;;;;;;10363705;28;84830;-43
2021/12/09 02:03:33;;;;;;;7.05;2.20;;;5.10;99.90;;;;;;10384282;28;85184;-44
2021/12/09 02:08:34;;;;;;;6.75;2.00;;;5.20;99.90;;;;;;10387969;28;85314;-44
2021/12/09 02:13:35;;;;;;;2.90;1.50;;;5.20;99.90;;;;;;10397733;28;85628;-46
2021/12/09 02:18:36;;;;;;;5.53;2.33;;;5.20;99.90;;;;;;10387281;28;86057;-45
2021/12/09 02:23:39;;;;;;;3.72;1.92;;;5.20;99.90;;;;;;10406129;28;85101;-44
2021/12/09 02:28:41;;;;;;;4.80;1.63;;;5.10;99.90;;;;;;10403206;28;84779;-46
2021/12/09 02:33:41;;;;;;;7.50;2.30;;;5.10;99.90;;;;;;10406195;28;84196;-44
2021/12/09 02:38:44;;;;;;;2.33;1.60;;;5.20;99.90;;;;;;10410933;28;86019;-44
2021/12/09 02:43:56;;;;;;;5.13;1.55;;;5.20;99.90;;;;;;10412065;28;84189;-44
2021/12/09 02:48:56;;;;;;;5.50;1.40;;;5.20;99.90;;;;;;10410366;28;85947;-45
2021/12/09 02:53:57;;;;;;;7.40;1.83;;;5.20;99.90;;;;;;10412972;28;84115;-47
2021/12/09 02:58:58;;;;;;;4.70;1.70;;;5.20;99.90;;;;;;10411929;28;84070;-44
2021/12/09 03:04:00;;;;;;;3.05;1.98;;;5.20;99.90;;;;;;10412168;28;84346;-44
2021/12/09 03:09:10;;;;;;;3.38;1.75;;;5.20;99.90;;;;;;10409164;28;86921;-43
2021/12/09 03:14:11;;;;;;;4.57;1.90;;;5.00;99.90;;;;;;10410340;28;84815;-46
2021/12/09 03:19:12;;;;;;;4.60;1.75;;;5.00;99.90;;;;;;10410975;28;84515;-45
2021/12/09 03:24:15;;;;;;;4.35;2.15;;;5.00;99.90;;;;;;10410779;28;84959;-49
2021/12/09 03:29:18;;;;;;;3.60;1.88;;;4.90;99.90;;;;;;10409641;28;84078;-44
2021/12/09 03:34:23;;;;;;;4.80;1.90;;;4.80;99.90;;;;;;10410246;28;84128;-45
2021/12/09 03:39:28;;;;;;;4.20;1.98;;;4.70;99.90;;;;;;10410109;28;84991;-44
2021/12/09 03:44:29;;;;;;;6.40;2.17;;;4.60;99.90;;;;;;10408560;28;85874;-46
2021/12/09 03:49:30;;;;;;;2.92;1.90;;;4.50;99.90;;;;;;10409750;28;84177;-49
2021/12/09 03:54:31;;;;;;;4.38;2.00;;;4.50;99.90;;;;;;10410391;28;84119;-47
2021/12/09 03:59:31;;;;;;;5.10;2.05;;;4.40;99.90;;;;;;10409261;28;84281;-47
2021/12/09 04:04:32;;;;;;;5.38;1.90;;;4.40;99.90;;;;;;10409994;28;84948;-44
2021/12/09 04:09:33;;;;;;;7.72;2.22;;;4.30;99.90;;;;;;10408709;28;84138;-48
2021/12/09 04:14:34;;;;;;;4.47;2.60;;;4.20;99.90;;;;;;10409300;28;84989;-44
2021/12/09 04:19:36;;;;;;;7.05;2.50;;;4.20;99.90;;;;;;10407035;28;86051;-49
2021/12/09 04:24:36;;;;;;;8.13;2.53;;;4.10;99.90;;;;;;10406813;28;85005;-45
2021/12/09 04:29:37;;;;;;;8.15;2.17;;;4.10;99.90;;;;;;10407951;28;84113;-45
2021/12/09 04:34:37;;;;;;;4.70;2.50;;;4.00;99.90;;;;;;10407109;28;84032;-43
2021/12/09 04:39:38;;;;;;;2.92;1.92;;;3.90;99.90;;;;;;10408276;28;84469;-47
2021/12/09 04:44:39;;;;;;;2.70;1.65;;;3.80;99.90;;;;;;10408146;28;84975;-48
2021/12/09 04:49:39;;;;;;;4.72;1.75;;;3.80;99.90;;;;;;10407659;28;84057;-45
2021/12/09 04:54:43;;;;;;;7.68;1.98;;;3.60;99.90;;;;;;10408825;28;84928;-45
2021/12/09 04:59:44;;;;;;;3.88;1.65;;;3.60;99.90;;;;;;10406630;28;84113;-47
2021/12/09 05:04:46;;;;;;;4.65;1.90;;;3.50;99.90;;;;;;10407876;28;84914;-43
2021/12/09 05:09:51;;;;;;;5.88;2.40;;;3.50;99.90;;;;;;10407772;28;84334;-43
2021/12/09 05:14:51;;;;;;;7.53;2.00;;;3.50;99.90;;;;;;10397821;28;84924;-43
2021/12/09 05:19:52;;;;;;;4.95;1.65;;;3.50;99.90;;;;;;10402056;28;84996;-44
2021/12/09 05:24:54;;;;;;;8.23;2.10;;;3.40;99.90;;;;;;10385217;28;84883;-46
2021/12/09 05:30:06;;;;;;;5.57;1.67;;;3.20;99.90;;;;;;10385267;28;84250;-44
2021/12/09 05:35:08;;;;;;;7.22;2.40;;;3.20;99.90;;;;;;10394907;28;85229;-46
2021/12/09 05:40:10;;;;;;;11.25;2.33;;;3.10;99.90;;;;;;10391542;28;85578;-46
2021/12/09 05:45:10;;;;;;;4.65;2.13;;;3.10;99.90;;;;;;10385795;28;84106;-44
2021/12/09 05:50:12;;;;;;;3.53;1.70;;;3.10;99.90;;;;;;10383216;28;84968;-44
2021/12/09 05:55:13;;;;;;;3.85;1.83;;;3.10;99.90;;;;;;10386251;28;86088;-45
2021/12/09 06:00:14;;;;;;;5.20;1.80;;;3.10;99.90;;;;;;10384826;28;84800;-46
2021/12/09 06:05:15;;;;;;;3.10;1.95;;;3.00;99.90;;;;;;10382823;28;85445;-45
2021/12/09 06:10:16;;;;;;;4.57;2.42;;;3.00;99.90;;;;;;10410632;28;84178;-46
2021/12/09 06:15:16;;;;;;;4.43;2.17;;;3.00;99.90;;;;;;10375713;28;87330;-51
2021/12/09 06:20:17;;;;;;;6.07;2.08;;;3.00;99.90;;;;;;10390216;28;84876;-44
2021/12/09 06:25:20;;;;;;;8.25;1.90;;;2.90;99.90;;;;;;10387243;28;85939;-40
2021/12/09 06:30:21;;;;;;;4.28;2.20;;;2.90;99.90;;;;;;10387476;28;84384;-45
2021/12/09 06:35:22;;;;;;;4.03;1.77;;;2.90;99.90;;;;;;10389355;28;84513;-44
2021/12/09 06:40:24;;;;;;;3.85;2.10;;;2.80;99.90;;;;;;10407652;28;85033;-45
2021/12/09 06:45:25;;;;;;;5.95;2.15;;;2.80;99.90;;;;;;10396402;28;84848;-50
2021/12/09 06:50:26;;;;;;;3.33;1.95;;;2.80;99.90;;;;;;10407865;28;84976;-44
2021/12/09 06:55:26;;;;;;;8.88;1.92;;;2.80;99.90;;;;;;10407975;28;84837;-42
2021/12/09 07:00:30;;;;;;;7.35;2.42;;;2.80;99.90;;;;;;10407931;28;84219;-44
2021/12/09 07:05:30;;;;;;;4.40;2.30;;;2.80;99.90;;;;;;10407590;28;85001;-45
2021/12/09 07:10:32;;;;;;;4.18;1.65;;;2.80;99.90;;;;;;10412698;22;86164;-47
2021/12/09 07:15:34;;;;;;;6.68;2.38;;;2.80;99.90;;;;;;10400077;28;84154;-50
2021/12/09 07:20:34;;;;;;;3.78;1.58;;;2.70;99.90;;;;;;10438560;28;84484;-51
2021/12/09 07:25:35;;;;;;;5.10;1.70;;;2.70;99.90;;;;;;10449030;27;84205;-53
2021/12/09 07:30:36;;;;;;;3.45;2.00;;;2.60;99.90;;;;;;10450088;28;84961;-50
2021/12/09 07:35:37;;;;;;;3.40;1.90;;;2.70;99.90;;;;;;10441588;28;85137;-49
2021/12/09 07:40:38;;;;;;;4.05;1.80;;;2.80;99.90;;;;;;10449525;27;84184;-52
2021/12/09 07:45:38;;;;;;;6.68;2.08;;;2.80;99.90;;;;;;10447650;28;84264;-47
2021/12/09 07:50:39;;;;;;;3.20;2.00;;;2.80;99.90;;;;;;10439902;27;84846;-49
2021/12/09 07:55:40;;;;;;;4.63;2.00;;;2.90;99.90;;;;;;10445562;28;85705;-50
2021/12/09 08:00:41;;;;;;;3.70;1.67;;;3.00;99.90;;;;;;10446262;28;84124;-51
2021/12/09 08:05:45;;;;;;;9.15;2.22;;;3.00;99.90;;;;;;10447191;28;84255;-48
2021/12/09 08:10:46;;;;;;;5.38;2.05;;;3.00;99.90;;;;;;10427712;28;84870;-53
2021/12/09 08:15:49;;;;;;;5.38;1.73;;;3.00;99.90;;;;;;10423301;28;84938;-50
2021/12/09 08:20:54;;;;;;;4.57;2.20;;;3.10;99.90;;;;;;10428809;28;84116;-50
2021/12/09 08:25:57;;;;;;;5.55;2.42;;;3.20;99.90;;;;;;10424735;28;84322;-47
2021/12/09 08:30:59;;;;;;;3.95;1.63;;;3.40;99.90;;;;;;10424676;28;84072;-47
2021/12/09 08:36:00;;;;;;;7.20;2.38;;;3.80;99.90;;;;;;10425041;28;84296;-48
2021/12/09 08:41:02;;;;;;;6.05;1.83;;;3.90;99.90;;;;;;10427627;28;83964;-48
2021/12/09 08:46:03;;;;;;;5.13;2.08;;;3.90;99.90;;;;;;10427727;28;84054;-47
2021/12/09 08:51:04;;;;;;;2.67;1.50;;;3.90;99.90;;;;;;10427557;28;84106;-51
2021/12/09 08:56:04;;;;;;;6.55;2.22;;;3.90;99.90;;;;;;10430964;28;84159;-51
2021/12/09 09:01:11;;;;;;;5.00;2.05;;;4.00;99.90;;;;;;10429855;28;84080;-48
2021/12/09 09:06:12;;;;;;;7.63;2.08;;;4.20;99.90;;;;;;10428905;28;84936;-50
2021/12/09 09:11:12;;;;;;;7.38;2.20;;;4.50;99.90;;;;;;10429057;28;85104;-51
2021/12/09 09:16:13;;;;;;;3.50;1.63;;;4.90;99.90;;;;;;10429607;28;85722;-53
2021/12/09 09:21:14;;;;;;;5.22;2.05;;;5.30;99.90;;;;;;10430320;28;84175;-53
2021/12/09 09:26:15;;;;;;;2.08;1.35;;;5.60;99.90;;;;;;10429565;28;84277;-49
2021/12/09 09:31:15;;;;;;;6.10;1.70;;;5.60;99.90;;;;;;10429588;28;84845;-50
2021/12/09 09:36:16;;;;;;;6.07;1.80;;;6.20;99.90;;;;;;10429333;28;84145;-47
2021/12/09 09:41:17;;;;;;;4.93;2.13;;;6.70;99.90;;;;;;10426940;28;84024;-48
2021/12/09 09:46:28;;;;;;;2.95;1.77;;;7.40;99.90;;;;;;10428316;28;84101;-50
2021/12/09 09:51:30;;;;;;;5.18;2.20;;;8.20;99.90;;;;;;10427022;28;84163;-51
2021/12/09 09:56:34;;;;;;;5.50;1.90;;;8.20;99.90;;;;;;10428923;28;84982;-51
2021/12/09 10:01:37;;;;;;;4.00;1.90;;;8.50;99.90;;;;;;10421777;28;85330;-48
2021/12/09 10:06:39;;;;;;;6.40;2.22;;;8.70;99.90;;;;;;10427121;28;83987;-49
2021/12/09 10:11:40;;;;;;;4.28;1.90;;;8.30;99.90;;;;;;10425623;28;85359;-50
2021/12/09 10:16:42;;;;;;;10.80;1.50;;;7.70;99.90;;;;;;10426722;28;84939;-52
2021/12/09 10:21:43;;;;;;;6.90;2.17;;;7.20;99.90;;;;;;10428577;28;84169;-47
2021/12/09 10:26:46;;;;;;;3.65;1.90;;;7.10;99.90;;;;;;10426757;28;84146;-49
2021/12/09 10:31:58;;;;;;;7.65;1.98;;;6.90;99.90;;;;;;10426438;28;85355;-52
2021/12/09 10:37:04;;;;;;;6.43;2.25;;;6.80;99.90;;;;;;10427414;28;84209;-51
2021/12/09 10:42:15;;;;;;;4.30;1.75;;;6.70;99.90;;;;;;10427830;28;84164;-49
2021/12/09 10:47:24;;;;;;;5.45;1.55;;;6.70;99.90;;;;;;10423623;28;84453;-48
2021/12/09 10:52:37;;;;;;;3.95;1.95;;;6.40;99.90;;;;;;10424915;28;84122;-48
2021/12/09 10:57:39;;;;;;;4.72;1.88;;;6.00;99.90;;;;;;10429117;28;83999;-51
2021/12/09 11:03:05;;;;;;;5.75;1.83;;;6.20;99.90;;;;;;10433478;28;84975;-50
2021/12/09 11:08:14;;;;;;;3.15;1.55;;;6.10;99.90;;;;;;10431742;28;84116;-49
2021/12/09 11:13:18;;;;;;;3.55;1.80;;;6.10;99.90;;;;;;10434247;28;84199;-50
2021/12/09 11:18:40;;;;;;;5.47;1.98;;;6.10;99.90;;;;;;10433207;28;84744;-49
2021/12/09 11:23:58;;;;;;;7.05;1.98;;;6.10;99.90;;;;;;10431211;28;84839;-49
2021/12/09 11:29:10;;;;;;;4.85;2.38;;;6.10;99.90;;;;;;10432586;28;84034;-49
2021/12/09 11:34:16;;;;;;;2.17;1.80;;;5.90;99.90;;;;;;10434187;28;84124;-51
2021/12/09 11:39:27;;;;;;;4.93;1.90;;;5.80;99.90;;;;;;10432094;28;84082;-49
2021/12/09 11:44:27;;;;;;;6.10;2.38;;;5.70;99.90;;;;;;10432329;28;84125;-48
2021/12/09 11:49:28;;;;;;;3.22;2.13;;;5.90;99.90;;;;;;10431767;28;84109;-46
2021/12/09 11:54:29;;;;;;;4.40;2.15;;;5.80;99.90;;;;;;10432787;28;84988;-49
2021/12/09 12:20:41;;;;;;;7.22;2.38;;;5.70;99.90;;;;;;10428587;28;84066;-49
2021/12/09 12:31:00;;;;;;;3.28;1.80;;;5.70;99.90;;;;;;10427776;28;85082;-49
2021/12/09 12:36:42;;;;;;;4.72;2.13;;;5.80;99.90;;;;;;10427150;28;84993;-48
2021/12/09 12:41:26;;;;;;;7.20;2.17;;;5.60;99.90;;;;;;10424029;28;87964;-50
2021/12/09 12:46:50;;;;;;;5.78;1.85;;;5.60;99.90;;;;;;10426690;28;84182;-47
2021/12/09 12:51:58;;;;;;;7.38;1.65;;;5.70;99.90;;;;;;10428001;28;83938;-49
2021/12/09 12:57:03;;;;;;;6.38;2.15;;;5.70;99.90;;;;;;10430409;28;84145;-51
2021/12/09 13:13:46;;;;;;;4.30;1.92;;;5.70;99.90;;;;;;10369277;28;84974;-46
2021/12/09 13:24:34;;;;;;;8.02;2.05;;;5.80;99.90;;;;;;10369612;28;84940;-46
2021/12/09 13:29:59;;;;;;;2.78;1.85;;;5.80;99.90;;;;;;10366497;28;86049;-44
2021/12/09 13:35:13;;;;;;;4.10;1.80;;;5.80;99.90;;;;;;10353727;28;84780;-43
2021/12/09 13:40:24;;;;;;;4.07;1.75;;;5.60;99.90;;;;;;10368673;28;84117;-43
2021/12/09 13:56:07;;;;;;;7.72;2.22;;;5.90;99.90;;;;;;10366350;28;86221;-45
2021/12/09 14:01:08;;;;;;;6.78;2.15;;;5.70;99.90;;;;;;10369154;28;84135;-45
2021/12/09 14:06:12;;;;;;;4.60;1.83;;;5.70;99.90;;;;;;10365993;28;86231;-46
2021/12/09 14:11:22;;;;;;;4.35;2.17;;;5.70;99.90;;;;;;10365726;28;86014;-46
2021/12/09 14:16:39;;;;;;;4.35;2.08;;;5.80;99.90;;;;;;10367560;28;84246;-46
2021/12/09 14:21:44;;;;;;;4.88;2.55;;;5.80;99.90;;;;;;10367918;28;84655;-44
2021/12/09 14:26:52;;;;;;;2.45;1.67;;;5.80;99.90;;;;;;10368578;28;86140;-45
2021/12/09 14:31:55;;;;;;;4.88;2.08;;;5.80;99.90;;;;;;10373102;28;84308;-44
2021/12/09 14:37:01;;;;;;;6.78;2.67;;;5.80;99.90;;;;;;10375916;28;85400;-44
2021/12/09 14:42:12;;;;;;;3.75;2.40;;;5.70;99.90;;;;;;10374770;28;84102;-45
2021/12/09 14:47:16;;;;;;;5.25;2.17;;;5.80;99.90;;;;;;10373537;28;85888;-43
2021/12/09 14:52:32;;;;;;;4.78;1.70;;;5.70;99.90;;;;;;10373528;28;84969;-43
2021/12/09 14:57:33;;;;;;;6.60;2.35;;;5.70;99.90;;;;;;10372614;28;84809;-45
2021/12/09 15:02:43;;;;;;;4.97;2.22;;;5.60;99.90;;;;;;10373116;28;84102;-43
2021/12/09 15:07:51;;;;;;;3.13;2.08;;;5.60;99.90;;;;;;10372513;28;84366;-45
2021/12/09 15:12:52;;;;;;;5.25;2.08;;;5.70;99.90;;;;;;10370605;28;85457;-44
2021/12/09 15:18:07;;;;;;;9.38;2.40;;;5.60;99.90;;;;;;10372001;28;83992;-47
2021/12/09 15:23:29;;;;;;;6.38;2.92;;;5.60;99.90;;;;;;10371694;28;84672;-43
2021/12/09 15:28:30;;;;;;;6.90;2.67;;;5.60;99.90;;;;;;10369872;28;84327;-43
2021/12/09 15:33:38;;;;;;;6.45;2.90;;;5.60;99.90;;;;;;10371540;28;84864;-45
2021/12/09 15:38:41;;;;;;;6.65;3.08;;;5.50;99.90;;;;;;10370790;28;84008;-46
2021/12/09 15:43:49;;;;;;;4.50;2.38;;;5.60;99.90;;;;;;10369152;28;87200;-45
2021/12/09 15:48:50;;;;;;;7.25;2.47;;;5.70;99.90;;;;;;10369755;28;84015;-45
2021/12/09 15:53:55;;;;;;;6.18;3.08;;;5.70;99.90;;;;;;10369367;28;86073;-43
2021/12/09 15:58:57;;;;;;;4.35;2.42;;;5.80;99.90;;;;;;10370502;28;84458;-44
2021/12/09 16:03:58;;;;;;;6.80;3.15;;;5.70;99.90;;;;;;10375034;28;85136;-44
2021/12/09 16:08:59;;;;;;;10.30;3.05;;;5.60;99.90;;;;;;10375523;28;84819;-45
2021/12/09 16:14:01;;;;;;;4.68;2.58;;;5.50;99.90;;;;;;10370056;28;85339;-43
2021/12/09 16:19:04;;;;;;;3.88;2.20;;;5.50;99.90;;;;;;10328013;28;84931;-44
2021/12/09 16:24:05;;;;;;;6.10;2.50;;;5.50;99.90;;;;;;10327469;28;84956;-45
2021/12/09 16:29:06;;;;;;;4.47;2.35;;;5.50;99.90;;;;;;10328752;28;84259;-44
2021/12/09 16:34:06;;;;;;;4.80;3.25;;;5.50;99.90;;;;;;10359761;28;84904;-46
2021/12/09 16:39:07;;;;;;;5.90;2.50;;;5.40;99.90;;;;;;10367186;28;86810;-40
2021/12/09 16:44:08;;;;;;;8.50;2.60;;;5.50;99.90;;;;;;10370252;28;84094;-44
2021/12/09 16:49:09;;;;;;;6.47;2.33;;;5.30;99.90;;;;;;10369662;28;84978;-46
2021/12/09 16:54:15;;;;;;;3.90;2.58;;;5.30;99.90;;;;;;10369396;28;85379;-44
2021/12/09 16:59:21;;;;;;;3.58;2.17;;;5.30;99.90;;;;;;10370658;28;85209;-46
2021/12/09 17:04:23;;;;;;;4.57;2.17;;;5.30;99.90;;;;;;10372271;28;85018;-45
2021/12/09 17:09:25;;;;;;;5.13;2.28;;;5.30;99.90;;;;;;10368303;28;84144;-46
2021/12/09 17:14:27;;;;;;;7.80;2.78;;;5.30;99.90;;;;;;10349645;28;84137;-48
2021/12/09 17:19:27;;;;;;;3.90;2.53;;;5.30;99.90;;;;;;10335595;28;84351;-46
2021/12/09 17:24:28;;;;;;;5.13;2.72;;;5.30;99.90;;;;;;10367849;28;88058;-45
2021/12/09 17:29:31;;;;;;;7.20;3.00;;;5.20;99.90;;;;;;10349955;28;84739;-44
2021/12/09 17:34:34;;;;;;;4.30;2.45;;;5.30;99.90;;;;;;10328475;28;84873;-44
2021/12/09 17:39:36;;;;;;;4.22;2.72;;;5.20;99.90;;;;;;10326586;28;86183;-45
2021/12/09 17:44:36;;;;;;;3.70;2.72;;;5.20;99.90;;;;;;10355488;28;84871;-48
2021/12/09 17:49:42;;;;;;;8.57;3.00;;;5.20;99.90;;;;;;10349044;28;86892;-46
2021/12/09 17:54:43;;;;;;;6.82;3.35;;;5.10;99.90;;;;;;10362171;28;84209;-46
2021/12/09 17:59:44;;;;;;;6.68;3.13;;;5.20;99.90;;;;;;10366246;28;84225;-46
2021/12/09 18:04:45;;;;;;;5.82;3.80;;;5.10;99.90;;;;;;10363780;28;85898;-44
2021/12/09 18:09:45;;;;;;;4.53;2.85;;;5.10;99.90;;;;;;10367433;28;84845;-45
2021/12/09 18:14:47;;;;;;;9.02;4.05;;;5.20;99.90;;;;;;10367396;28;84148;-46
2021/12/09 18:19:49;;;;;;;7.85;3.13;;;5.10;99.90;;;;;;10366885;28;84080;-49
2021/12/09 18:24:49;;;;;;;5.68;3.47;;;5.10;99.90;;;;;;10362679;28;84681;-45
2021/12/09 18:29:50;;;;;;;25.65;9.88;;;5.00;99.90;;;;;;10364731;28;84967;-44
2021/12/09 18:34:56;;;;;;;7.47;3.15;;;5.00;99.90;;;;;;10365696;28;84823;-47
2021/12/09 18:39:57;;;;;;;4.82;3.05;;;5.00;99.90;;;;;;10364281;28;87175;-44
2021/12/09 18:45:00;;;;;;;5.78;2.70;;;5.00;99.90;;;;;;10364996;28;86057;-50
2021/12/09 18:50:02;;;;;;;7.10;3.90;;;5.00;99.90;;;;;;10365889;28;84949;-51
2021/12/09 18:55:05;;;;;;;4.63;2.85;;;5.00;99.90;;;;;;10363019;28;84955;-48
2021/12/09 19:00:10;;;;;;;8.80;3.53;;;5.00;99.90;;;;;;10365443;28;84147;-51
2021/12/09 19:05:13;;;;;;;4.22;2.28;;;4.90;99.90;;;;;;10364491;28;84948;-45
2021/12/09 19:10:14;;;;;;;6.00;3.03;;;5.00;99.90;;;;;;10391502;22;85819;-51
2021/12/09 19:15:15;;;;;;;5.30;3.10;;;5.00;99.90;;;;;;10370564;28;84152;-54
2021/12/09 19:20:20;;;;;;;8.77;3.20;;;5.00;99.90;;;;;;10396236;28;84413;-51
2021/12/09 19:25:22;;;;;;;7.25;3.13;;;5.00;99.90;;;;;;10417531;28;84041;-52
2021/12/09 19:30:26;;;;;;;5.90;3.10;;;5.10;99.90;;;;;;10420318;28;85087;-47
2021/12/09 19:35:33;;;;;;;4.40;2.70;;;4.90;99.90;;;;;;10416354;28;84106;-50
2021/12/09 19:40:34;;;;;;;6.90;3.28;;;4.80;99.90;;;;;;10369646;28;84928;-46
2021/12/09 19:45:36;;;;;;;7.13;3.22;;;4.70;99.90;;;;;;10333515;28;84934;-53
2021/12/09 19:50:37;;;;;;;5.75;2.90;;;4.70;99.90;;;;;;10333388;28;84104;-50
2021/12/09 19:55:39;;;;;;;6.85;3.67;;;4.70;99.90;;;;;;10332098;28;84840;-49
2021/12/09 20:00:40;;;;;;;9.77;4.25;;;4.70;99.90;;;;;;10333793;28;84103;-52
2021/12/09 20:05:41;;;;;;;8.57;3.83;;;4.60;99.90;;;;;;10355859;28;84973;-50
2021/12/09 20:10:42;;;;;;;7.20;3.88;;;4.70;99.90;;;;;;10385088;28;84133;-51
2021/12/09 20:15:43;;;;;;;6.97;3.88;;;4.70;99.90;;;;;;10365747;28;84231;-55
2021/12/09 20:20:44;;;;;;;8.27;4.25;;;4.60;99.90;;;;;;10367033;28;84105;-51
2021/12/09 20:25:45;;;;;;;8.57;3.85;;;4.70;99.90;;;;;;10369431;28;84913;-50
2021/12/09 20:30:46;;;;;;;13.75;5.13;;;4.80;99.90;;;;;;10353288;28;85003;-57
2021/12/09 20:35:47;;;;;;;9.88;4.90;;;4.80;99.90;;;;;;10373933;28;84747;-55
2021/12/09 20:40:47;;;;;;;7.55;4.22;;;4.70;99.90;;;;;;10369793;28;85270;-50
2021/12/09 20:45:48;;;;;;;7.80;3.95;;;4.70;99.90;;;;;;10334061;28;84801;-49
2021/12/09 20:50:49;;;;;;;9.05;4.03;;;4.80;99.90;;;;;;10332015;28;84372;-50
2021/12/09 20:55:51;;;;;;;8.60;4.93;;;4.80;99.90;;;;;;10329699;28;85092;-49
2021/12/09 21:00:54;;;;;;;9.38;3.72;;;4.80;99.90;;;;;;10331753;28;85549;-48
2021/12/09 21:05:56;;;;;;;8.10;3.53;;;4.70;99.90;;;;;;10331909;28;84270;-50
2021/12/09 21:11:00;;;;;;;7.00;3.97;;;4.60;99.90;;;;;;10349671;28;84179;-51
2021/12/09 21:16:07;;;;;;;9.95;4.32;;;4.60;99.90;;;;;;10351892;28;84061;-49
2021/12/09 21:21:09;;;;;;;9.48;4.10;;;4.60;99.90;;;;;;10347699;28;86110;-50
2021/12/09 21:26:10;;;;;;;8.32;3.78;;;4.60;99.90;;;;;;10350654;28;84944;-48
2021/12/09 21:31:12;;;;;;;7.53;3.85;;;4.70;99.90;;;;;;10369916;28;84189;-49
2021/12/09 21:36:14;;;;;;;9.40;4.20;;;4.60;99.90;;;;;;10368079;28;85124;-49
2021/12/09 21:41:15;;;;;;;7.43;3.78;;;4.60;99.90;;;;;;10370552;28;85267;-51
2021/12/09 21:46:15;;;;;;;7.05;4.10;;;4.70;99.90;;;;;;10369733;28;85087;-52
2021/12/09 21:51:16;;;;;;;7.90;4.38;;;4.70;99.90;;;;;;10371955;28;84142;-48
2021/12/09 21:56:17;;;;;;;6.68;3.85;;;4.60;99.90;;;;;;10371300;28;84714;-50
2021/12/09 22:01:17;;;;;;;7.45;4.15;;;4.60;99.90;;;;;;10369375;28;84028;-53
2021/12/09 22:06:18;;;;;;;7.15;3.33;;;4.60;99.90;;;;;;10366536;28;84257;-52
2021/12/09 22:11:21;;;;;;;12.40;4.53;;;4.50;99.90;;;;;;10371611;28;84152;-49
2021/12/09 22:16:27;;;;;;;8.25;3.72;;;4.50;99.90;;;;;;10393527;28;84105;-52
2021/12/09 22:21:29;;;;;;;6.63;3.72;;;4.50;99.90;;;;;;10390211;28;84976;-51
2021/12/09 22:26:30;;;;;;;5.60;3.80;;;4.50;99.90;;;;;;10385169;28;84242;-49
2021/12/09 22:31:31;;;;;;;9.25;3.45;;;4.40;99.90;;;;;;10388274;28;84062;-51
2021/12/09 22:36:32;;;;;;;10.20;4.03;;;4.40;99.90;;;;;;10392717;28;84152;-49
2021/12/09 22:41:33;;;;;;;7.20;4.13;;;4.50;99.90;;;;;;10386297;28;85911;-51
2021/12/09 22:46:39;;;;;;;7.95;4.25;;;4.50;99.90;;;;;;10384146;28;84227;-52
2021/12/09 22:51:46;;;;;;;7.05;3.90;;;4.50;99.90;;;;;;10391305;28;84639;-49
2021/12/09 22:56:49;;;;;;;8.52;4.07;;;4.40;99.90;;;;;;10396956;28;84195;-51
2021/12/09 23:01:50;;;;;;;8.93;4.20;;;4.40;99.90;;;;;;10394144;28;85053;-51
2021/12/09 23:06:52;;;;;;;7.32;4.05;;;4.40;99.90;;;;;;10375281;28;84038;-46
2021/12/09 23:11:54;;;;;;;9.95;4.13;;;4.50;99.90;;;;;;10372862;28;84222;-51
2021/12/09 23:16:56;;;;;;;8.77;3.35;;;4.40;99.90;;;;;;10374510;28;84026;-52
2021/12/09 23:21:58;;;;;;;11.15;4.55;;;4.50;99.90;;;;;;10374738;28;84917;-49
2021/12/09 23:26:59;;;;;;;11.27;3.70;;;4.50;99.90;;;;;;10374126;28;84071;-54
2021/12/09 23:32:00;;;;;;;8.10;4.22;;;4.40;99.90;;;;;;10374488;28;84001;-50
2021/12/09 23:37:01;;;;;;;10.40;3.58;;;4.40;99.90;;;;;;10373515;28;84892;-50
2021/12/09 23:42:02;;;;;;;7.63;3.60;;;4.30;99.90;;;;;;10373532;28;84978;-53
2021/12/09 23:47:03;;;;;;;7.38;3.58;;;4.30;99.90;;;;;;10373439;28;84821;-50
2021/12/09 23:52:04;;;;;;;6.07;3.28;;;4.30;99.90;;;;;;10373125;28;84086;-48
2021/12/09 23:57:08;;;;;;;7.57;3.67;;;4.40;99.90;;;;;;10372864;28;84925;-50
